sensor_id;sensor_type;location;lat;lon;timestamp;temperature;humidity
59572;DHT22;74587;45.880;11.484;2024-02-15T00:00:27;5.50;75.20
59572;DHT22;74587;45.880;11.484;2024-02-15T00:02:53;5.30;75.20
59572;DHT22;74587;45.880;11.484;2024-02-15T00:05:19;5.60;74.80
59572;DHT22;74587;45.880;11.484;2024-02-15T00:07:45;5.80;74.70
59572;DHT22;74587;45.880;11.484;2024-02-15T00:10:15;5.90;74.90
59572;DHT22;74587;45.880;11.484;2024-02-15T00:12:41;5.70;75.10
59572;DHT22;74587;45.880;11.484;2024-02-15T00:15:07;5.30;75.00
59572;DHT22;74587;45.880;11.484;2024-02-15T00:17:34;5.20;75.00
59572;DHT22;74587;45.880;11.484;2024-02-15T00:20:02;5.30;75.00
59572;DHT22;74587;45.880;11.484;2024-02-15T00:22:30;5.40;75.10
59572;DHT22;74587;45.880;11.484;2024-02-15T00:24:56;5.30;75.10
59572;DHT22;74587;45.880;11.484;2024-02-15T00:27:23;5.40;75.30
59572;DHT22;74587;45.880;11.484;2024-02-15T00:29:49;5.40;75.40
59572;DHT22;74587;45.880;11.484;2024-02-15T00:32:17;5.50;75.30
59572;DHT22;74587;45.880;11.484;2024-02-15T00:34:43;5.50;75.40
59572;DHT22;74587;45.880;11.484;2024-02-15T00:37:09;5.30;75.40
59572;DHT22;74587;45.880;11.484;2024-02-15T00:39:35;5.20;75.40
59572;DHT22;74587;45.880;11.484;2024-02-15T00:42:01;5.20;75.40
59572;DHT22;74587;45.880;11.484;2024-02-15T00:44:27;5.60;75.30
59572;DHT22;74587;45.880;11.484;2024-02-15T00:46:53;5.50;75.40
59572;DHT22;74587;45.880;11.484;2024-02-15T00:49:19;5.50;75.70
59572;DHT22;74587;45.880;11.484;2024-02-15T00:51:46;5.60;75.70
59572;DHT22;74587;45.880;11.484;2024-02-15T00:54:12;5.60;75.60
59572;DHT22;74587;45.880;11.484;2024-02-15T00:56:40;5.50;75.20
59572;DHT22;74587;45.880;11.484;2024-02-15T00:59:07;5.60;75.40
59572;DHT22;74587;45.880;11.484;2024-02-15T01:01:33;5.50;75.30
59572;DHT22;74587;45.880;11.484;2024-02-15T01:04:00;5.70;74.50
59572;DHT22;74587;45.880;11.484;2024-02-15T01:06:26;5.80;75.00
59572;DHT22;74587;45.880;11.484;2024-02-15T01:09:12;5.70;75.00
59572;DHT22;74587;45.880;11.484;2024-02-15T01:11:38;5.80;74.70
59572;DHT22;74587;45.880;11.484;2024-02-15T01:14:04;5.90;74.70
59572;DHT22;74587;45.880;11.484;2024-02-15T01:16:32;5.80;74.90
59572;DHT22;74587;45.880;11.484;2024-02-15T01:19:18;5.90;74.80
59572;DHT22;74587;45.880;11.484;2024-02-15T01:21:47;6.10;74.70
59572;DHT22;74587;45.880;11.484;2024-02-15T01:26:44;6.20;74.60
59572;DHT22;74587;45.880;11.484;2024-02-15T01:29:13;6.20;73.80
59572;DHT22;74587;45.880;11.484;2024-02-15T01:31:39;6.30;73.90
59572;DHT22;74587;45.880;11.484;2024-02-15T01:34:08;6.50;73.90
59572;DHT22;74587;45.880;11.484;2024-02-15T01:36:34;6.40;73.90
59572;DHT22;74587;45.880;11.484;2024-02-15T01:39:00;6.50;74.30
59572;DHT22;74587;45.880;11.484;2024-02-15T01:41:26;6.50;74.10
59572;DHT22;74587;45.880;11.484;2024-02-15T01:43:52;6.70;74.20
59572;DHT22;74587;45.880;11.484;2024-02-15T01:46:19;6.40;74.40
59572;DHT22;74587;45.880;11.484;2024-02-15T01:48:46;6.50;74.00
59572;DHT22;74587;45.880;11.484;2024-02-15T01:51:15;6.60;74.20
59572;DHT22;74587;45.880;11.484;2024-02-15T01:53:42;6.50;73.90
59572;DHT22;74587;45.880;11.484;2024-02-15T01:56:28;6.70;74.00
59572;DHT22;74587;45.880;11.484;2024-02-15T01:58:54;6.60;74.30
59572;DHT22;74587;45.880;11.484;2024-02-15T02:01:20;6.50;74.10
59572;DHT22;74587;45.880;11.484;2024-02-15T02:03:50;6.40;74.60
59572;DHT22;74587;45.880;11.484;2024-02-15T02:06:17;6.30;74.40
59572;DHT22;74587;45.880;11.484;2024-02-15T02:08:45;6.30;74.40
59572;DHT22;74587;45.880;11.484;2024-02-15T02:11:11;6.20;74.30
59572;DHT22;74587;45.880;11.484;2024-02-15T02:13:38;6.10;74.60
59572;DHT22;74587;45.880;11.484;2024-02-15T02:16:27;5.90;74.50
59572;DHT22;74587;45.880;11.484;2024-02-15T02:18:56;6.00;74.50
59572;DHT22;74587;45.880;11.484;2024-02-15T02:21:23;5.90;74.70
59572;DHT22;74587;45.880;11.484;2024-02-15T02:23:53;5.80;74.60
59572;DHT22;74587;45.880;11.484;2024-02-15T02:26:22;5.70;74.60
59572;DHT22;74587;45.880;11.484;2024-02-15T02:28:49;5.70;74.90
59572;DHT22;74587;45.880;11.484;2024-02-15T02:31:15;5.60;74.90
59572;DHT22;74587;45.880;11.484;2024-02-15T02:33:50;5.70;75.00
59572;DHT22;74587;45.880;11.484;2024-02-15T02:36:18;5.60;75.00
59572;DHT22;74587;45.880;11.484;2024-02-15T02:38:43;5.70;74.70
59572;DHT22;74587;45.880;11.484;2024-02-15T02:41:16;5.60;75.00
59572;DHT22;74587;45.880;11.484;2024-02-15T02:43:42;5.50;75.00
59572;DHT22;74587;45.880;11.484;2024-02-15T02:46:12;5.40;74.90
59572;DHT22;74587;45.880;11.484;2024-02-15T02:48:42;5.30;75.00
59572;DHT22;74587;45.880;11.484;2024-02-15T02:51:08;5.40;75.00
59572;DHT22;74587;45.880;11.484;2024-02-15T02:53:34;5.40;74.80
59572;DHT22;74587;45.880;11.484;2024-02-15T02:56:00;5.40;74.80
59572;DHT22;74587;45.880;11.484;2024-02-15T02:58:25;5.60;74.70
59572;DHT22;74587;45.880;11.484;2024-02-15T03:00:52;5.60;74.70
59572;DHT22;74587;45.880;11.484;2024-02-15T03:03:18;5.50;74.80
59572;DHT22;74587;45.880;11.484;2024-02-15T03:05:53;5.50;74.90
59572;DHT22;74587;45.880;11.484;2024-02-15T03:08:19;5.50;75.00
59572;DHT22;74587;45.880;11.484;2024-02-15T03:10:46;5.20;74.90
59572;DHT22;74587;45.880;11.484;2024-02-15T03:13:12;5.20;75.00
59572;DHT22;74587;45.880;11.484;2024-02-15T03:15:38;5.30;74.80
59572;DHT22;74587;45.880;11.484;2024-02-15T03:18:04;5.30;74.90
59572;DHT22;74587;45.880;11.484;2024-02-15T03:20:32;5.20;75.00
59572;DHT22;74587;45.880;11.484;2024-02-15T03:23:00;5.00;75.10
59572;DHT22;74587;45.880;11.484;2024-02-15T03:25:28;4.70;75.20
59572;DHT22;74587;45.880;11.484;2024-02-15T03:27:58;5.10;75.00
59572;DHT22;74587;45.880;11.484;2024-02-15T03:30:30;5.10;75.10
59572;DHT22;74587;45.880;11.484;2024-02-15T03:33:01;5.00;74.80
59572;DHT22;74587;45.880;11.484;2024-02-15T03:35:30;5.20;74.40
59572;DHT22;74587;45.880;11.484;2024-02-15T03:37:57;5.30;74.40
59572;DHT22;74587;45.880;11.484;2024-02-15T03:40:23;5.40;74.60
59572;DHT22;74587;45.880;11.484;2024-02-15T03:42:55;5.50;74.20
59572;DHT22;74587;45.880;11.484;2024-02-15T03:45:22;5.50;74.30
59572;DHT22;74587;45.880;11.484;2024-02-15T03:47:54;5.40;74.10
59572;DHT22;74587;45.880;11.484;2024-02-15T03:50:21;5.60;74.00
59572;DHT22;74587;45.880;11.484;2024-02-15T03:52:48;5.50;74.10
59572;DHT22;74587;45.880;11.484;2024-02-15T03:55:14;5.50;73.90
59572;DHT22;74587;45.880;11.484;2024-02-15T03:57:41;5.70;72.70
59572;DHT22;74587;45.880;11.484;2024-02-15T04:00:10;5.90;73.00
59572;DHT22;74587;45.880;11.484;2024-02-15T04:02:37;6.00;73.00
59572;DHT22;74587;45.880;11.484;2024-02-15T04:05:06;5.70;73.10
59572;DHT22;74587;45.880;11.484;2024-02-15T04:07:33;5.80;73.00
59572;DHT22;74587;45.880;11.484;2024-02-15T04:09:59;5.80;72.90
59572;DHT22;74587;45.880;11.484;2024-02-15T04:12:26;5.70;73.20
59572;DHT22;74587;45.880;11.484;2024-02-15T04:14:52;5.60;73.80
59572;DHT22;74587;45.880;11.484;2024-02-15T04:17:20;5.50;73.60
59572;DHT22;74587;45.880;11.484;2024-02-15T04:20:07;5.30;73.20
59572;DHT22;74587;45.880;11.484;2024-02-15T04:22:54;5.30;73.30
59572;DHT22;74587;45.880;11.484;2024-02-15T04:25:22;5.40;73.10
59572;DHT22;74587;45.880;11.484;2024-02-15T04:28:10;5.00;73.30
59572;DHT22;74587;45.880;11.484;2024-02-15T04:30:36;5.10;73.50
59572;DHT22;74587;45.880;11.484;2024-02-15T04:33:04;4.90;73.30
59572;DHT22;74587;45.880;11.484;2024-02-15T04:35:36;5.00;73.60
59572;DHT22;74587;45.880;11.484;2024-02-15T04:38:06;4.90;73.80
59572;DHT22;74587;45.880;11.484;2024-02-15T04:40:34;4.70;74.20
59572;DHT22;74587;45.880;11.484;2024-02-15T04:43:01;4.90;74.20
59572;DHT22;74587;45.880;11.484;2024-02-15T04:45:46;5.10;74.10
59572;DHT22;74587;45.880;11.484;2024-02-15T04:48:15;5.00;74.20
59572;DHT22;74587;45.880;11.484;2024-02-15T04:50:43;5.20;74.40
59572;DHT22;74587;45.880;11.484;2024-02-15T04:53:14;5.00;74.30
59572;DHT22;74587;45.880;11.484;2024-02-15T04:55:42;4.90;74.30
59572;DHT22;74587;45.880;11.484;2024-02-15T04:58:09;5.10;73.90
59572;DHT22;74587;45.880;11.484;2024-02-15T05:00:36;5.10;74.00
59572;DHT22;74587;45.880;11.484;2024-02-15T05:03:03;5.10;73.70
59572;DHT22;74587;45.880;11.484;2024-02-15T05:05:29;5.40;73.40
59572;DHT22;74587;45.880;11.484;2024-02-15T05:08:15;5.30;72.90
59572;DHT22;74587;45.880;11.484;2024-02-15T05:10:42;5.20;73.20
59572;DHT22;74587;45.880;11.484;2024-02-15T05:13:08;5.50;73.30
59572;DHT22;74587;45.880;11.484;2024-02-15T05:15:35;5.70;73.00
59572;DHT22;74587;45.880;11.484;2024-02-15T05:18:21;5.40;73.00
59572;DHT22;74587;45.880;11.484;2024-02-15T05:21:07;5.30;73.30
59572;DHT22;74587;45.880;11.484;2024-02-15T05:23:40;5.30;73.30
59572;DHT22;74587;45.880;11.484;2024-02-15T05:26:10;5.20;73.50
59572;DHT22;74587;45.880;11.484;2024-02-15T05:28:38;5.10;73.50
59572;DHT22;74587;45.880;11.484;2024-02-15T05:33:38;5.20;73.30
59572;DHT22;74587;45.880;11.484;2024-02-15T05:36:10;5.20;73.80
59572;DHT22;74587;45.880;11.484;2024-02-15T05:38:36;5.00;73.50
59572;DHT22;74587;45.880;11.484;2024-02-15T05:41:02;4.90;73.30
59572;DHT22;74587;45.880;11.484;2024-02-15T05:43:29;5.00;73.30
59572;DHT22;74587;45.880;11.484;2024-02-15T05:45:55;4.80;73.50
59572;DHT22;74587;45.880;11.484;2024-02-15T05:48:23;4.80;73.50
59572;DHT22;74587;45.880;11.484;2024-02-15T05:50:52;4.70;73.70
59572;DHT22;74587;45.880;11.484;2024-02-15T05:53:21;4.80;73.80
59572;DHT22;74587;45.880;11.484;2024-02-15T05:55:53;4.70;73.60
59572;DHT22;74587;45.880;11.484;2024-02-15T05:58:19;4.70;73.60
59572;DHT22;74587;45.880;11.484;2024-02-15T06:00:47;5.10;73.60
59572;DHT22;74587;45.880;11.484;2024-02-15T06:03:20;5.10;73.60
59572;DHT22;74587;45.880;11.484;2024-02-15T06:05:52;5.20;73.10
59572;DHT22;74587;45.880;11.484;2024-02-15T06:08:25;5.30;73.20
59572;DHT22;74587;45.880;11.484;2024-02-15T06:10:52;5.20;73.40
59572;DHT22;74587;45.880;11.484;2024-02-15T06:13:20;5.10;73.40
59572;DHT22;74587;45.880;11.484;2024-02-15T06:15:46;5.00;73.60
59572;DHT22;74587;45.880;11.484;2024-02-15T06:18:14;4.90;73.40
59572;DHT22;74587;45.880;11.484;2024-02-15T06:20:42;5.00;73.50
59572;DHT22;74587;45.880;11.484;2024-02-15T06:23:09;4.90;73.20
59572;DHT22;74587;45.880;11.484;2024-02-15T06:25:37;5.00;73.10
59572;DHT22;74587;45.880;11.484;2024-02-15T06:28:03;5.00;72.90
59572;DHT22;74587;45.880;11.484;2024-02-15T06:30:39;5.10;73.30
59572;DHT22;74587;45.880;11.484;2024-02-15T06:33:24;5.10;72.90
59572;DHT22;74587;45.880;11.484;2024-02-15T06:36:08;5.20;73.50
59572;DHT22;74587;45.880;11.484;2024-02-15T06:49:10;6.20;72.80
59572;DHT22;74587;45.880;11.484;2024-02-15T06:54:29;6.10;72.70
59572;DHT22;74587;45.880;11.484;2024-02-15T06:57:00;6.10;72.90
59572;DHT22;74587;45.880;11.484;2024-02-15T06:59:30;5.90;73.10
59572;DHT22;74587;45.880;11.484;2024-02-15T07:02:00;5.90;73.40
59572;DHT22;74587;45.880;11.484;2024-02-15T07:04:27;5.90;73.20
59572;DHT22;74587;45.880;11.484;2024-02-15T07:06:53;6.20;73.30
59572;DHT22;74587;45.880;11.484;2024-02-15T07:11:55;6.30;72.90
59572;DHT22;74587;45.880;11.484;2024-02-15T07:14:22;6.40;73.20
59572;DHT22;74587;45.880;11.484;2024-02-15T07:16:48;6.60;73.20
59572;DHT22;74587;45.880;11.484;2024-02-15T07:19:15;6.70;73.10
59572;DHT22;74587;45.880;11.484;2024-02-15T07:21:41;6.70;73.40
59572;DHT22;74587;45.880;11.484;2024-02-15T07:24:07;6.80;73.30
59572;DHT22;74587;45.880;11.484;2024-02-15T07:26:33;7.00;73.20
59572;DHT22;74587;45.880;11.484;2024-02-15T07:29:06;7.00;73.40
59572;DHT22;74587;45.880;11.484;2024-02-15T07:31:33;7.10;73.30
59572;DHT22;74587;45.880;11.484;2024-02-15T07:34:00;7.10;72.90
59572;DHT22;74587;45.880;11.484;2024-02-15T07:36:27;7.10;72.10
59572;DHT22;74587;45.880;11.484;2024-02-15T07:38:54;7.10;72.10
59572;DHT22;74587;45.880;11.484;2024-02-15T07:41:21;7.20;72.40
59572;DHT22;74587;45.880;11.484;2024-02-15T07:43:48;7.20;72.10
59572;DHT22;74587;45.880;11.484;2024-02-15T07:46:14;7.40;71.80
59572;DHT22;74587;45.880;11.484;2024-02-15T07:48:45;7.50;71.70
59572;DHT22;74587;45.880;11.484;2024-02-15T07:51:15;7.60;71.70
59572;DHT22;74587;45.880;11.484;2024-02-15T07:53:42;7.80;71.70
59572;DHT22;74587;45.880;11.484;2024-02-15T07:56:09;8.00;71.60
59572;DHT22;74587;45.880;11.484;2024-02-15T07:58:38;8.10;71.60
59572;DHT22;74587;45.880;11.484;2024-02-15T08:01:07;8.10;71.80
59572;DHT22;74587;45.880;11.484;2024-02-15T08:03:33;8.20;71.70
59572;DHT22;74587;45.880;11.484;2024-02-15T08:06:01;8.20;71.60
59572;DHT22;74587;45.880;11.484;2024-02-15T08:08:29;8.20;71.60
59572;DHT22;74587;45.880;11.484;2024-02-15T08:10:55;8.40;71.00
59572;DHT22;74587;45.880;11.484;2024-02-15T08:13:20;8.40;71.50
59572;DHT22;74587;45.880;11.484;2024-02-15T08:15:49;8.40;71.60
59572;DHT22;74587;45.880;11.484;2024-02-15T08:18:18;8.50;71.60
59572;DHT22;74587;45.880;11.484;2024-02-15T08:20:45;8.60;71.50
59572;DHT22;74587;45.880;11.484;2024-02-15T08:23:10;8.70;71.10
59572;DHT22;74587;45.880;11.484;2024-02-15T08:25:38;8.70;71.10
59572;DHT22;74587;45.880;11.484;2024-02-15T08:28:06;8.80;71.30
59572;DHT22;74587;45.880;11.484;2024-02-15T08:30:33;8.80;71.40
59572;DHT22;74587;45.880;11.484;2024-02-15T08:32:59;8.90;71.60
59572;DHT22;74587;45.880;11.484;2024-02-15T08:35:24;9.00;71.20
59572;DHT22;74587;45.880;11.484;2024-02-15T08:37:50;9.00;71.30
59572;DHT22;74587;45.880;11.484;2024-02-15T08:40:18;9.00;70.60
59572;DHT22;74587;45.880;11.484;2024-02-15T08:42:50;9.00;71.20
59572;DHT22;74587;45.880;11.484;2024-02-15T08:45:15;9.00;71.30
59572;DHT22;74587;45.880;11.484;2024-02-15T08:47:42;9.10;70.50
59572;DHT22;74587;45.880;11.484;2024-02-15T08:50:21;9.10;69.60
59572;DHT22;74587;45.880;11.484;2024-02-15T08:53:07;9.20;69.70
59572;DHT22;74587;45.880;11.484;2024-02-15T08:55:53;9.30;69.70
59572;DHT22;74587;45.880;11.484;2024-02-15T08:58:21;9.40;69.50
59572;DHT22;74587;45.880;11.484;2024-02-15T09:00:47;9.50;69.90
59572;DHT22;74587;45.880;11.484;2024-02-15T09:03:12;9.40;68.90
59572;DHT22;74587;45.880;11.484;2024-02-15T09:05:42;9.60;68.90
59572;DHT22;74587;45.880;11.484;2024-02-15T09:08:08;9.70;69.50
59572;DHT22;74587;45.880;11.484;2024-02-15T09:10:34;9.80;69.20
59572;DHT22;74587;45.880;11.484;2024-02-15T09:13:01;9.80;69.50
59572;DHT22;74587;45.880;11.484;2024-02-15T09:15:27;9.90;69.60
59572;DHT22;74587;45.880;11.484;2024-02-15T09:17:56;10.00;69.90
59572;DHT22;74587;45.880;11.484;2024-02-15T09:20:24;10.10;70.30
59572;DHT22;74587;45.880;11.484;2024-02-15T09:22:54;10.20;70.40
59572;DHT22;74587;45.880;11.484;2024-02-15T09:25:21;10.30;70.30
59572;DHT22;74587;45.880;11.484;2024-02-15T09:27:50;10.40;70.50
59572;DHT22;74587;45.880;11.484;2024-02-15T09:30:16;10.40;70.50
59572;DHT22;74587;45.880;11.484;2024-02-15T09:32:43;10.40;70.60
59572;DHT22;74587;45.880;11.484;2024-02-15T09:35:10;10.50;70.40
59572;DHT22;74587;45.880;11.484;2024-02-15T09:40:11;10.60;70.40
59572;DHT22;74587;45.880;11.484;2024-02-15T09:42:38;10.60;70.40
59572;DHT22;74587;45.880;11.484;2024-02-15T09:45:08;10.60;70.40
59572;DHT22;74587;45.880;11.484;2024-02-15T09:47:39;10.60;70.30
59572;DHT22;74587;45.880;11.484;2024-02-15T09:50:15;10.60;70.30
59572;DHT22;74587;45.880;11.484;2024-02-15T09:52:50;10.50;70.40
59572;DHT22;74587;45.880;11.484;2024-02-15T09:55:17;10.50;70.40
59572;DHT22;74587;45.880;11.484;2024-02-15T09:57:44;10.60;70.40
59572;DHT22;74587;45.880;11.484;2024-02-15T10:00:12;10.70;70.60
59572;DHT22;74587;45.880;11.484;2024-02-15T10:02:48;10.60;70.30
59572;DHT22;74587;45.880;11.484;2024-02-15T10:05:14;10.70;70.20
59572;DHT22;74587;45.880;11.484;2024-02-15T10:07:40;10.70;70.30
59572;DHT22;74587;45.880;11.484;2024-02-15T10:10:22;10.70;70.30
59572;DHT22;74587;45.880;11.484;2024-02-15T10:12:53;10.70;70.20
59572;DHT22;74587;45.880;11.484;2024-02-15T10:17:58;10.80;70.10
59572;DHT22;74587;45.880;11.484;2024-02-15T10:20:25;10.90;70.30
59572;DHT22;74587;45.880;11.484;2024-02-15T10:25:29;10.90;69.90
59572;DHT22;74587;45.880;11.484;2024-02-15T10:28:04;11.00;70.10
59572;DHT22;74587;45.880;11.484;2024-02-15T10:30:42;10.90;70.10
59572;DHT22;74587;45.880;11.484;2024-02-15T10:33:26;11.00;69.90
59572;DHT22;74587;45.880;11.484;2024-02-15T10:36:08;11.00;69.80
59572;DHT22;74587;45.880;11.484;2024-02-15T10:38:34;10.90;69.90
59572;DHT22;74587;45.880;11.484;2024-02-15T10:41:07;11.00;69.90
59572;DHT22;74587;45.880;11.484;2024-02-15T10:43:37;10.90;69.90
59572;DHT22;74587;45.880;11.484;2024-02-15T10:46:04;11.00;70.00
59572;DHT22;74587;45.880;11.484;2024-02-15T10:48:36;11.00;70.20
59572;DHT22;74587;45.880;11.484;2024-02-15T10:51:09;11.10;70.30
59572;DHT22;74587;45.880;11.484;2024-02-15T10:53:39;11.30;70.10
59572;DHT22;74587;45.880;11.484;2024-02-15T10:56:26;11.20;70.30
59572;DHT22;74587;45.880;11.484;2024-02-15T11:01:46;11.40;70.60
59572;DHT22;74587;45.880;11.484;2024-02-15T11:04:20;11.40;70.60
59572;DHT22;74587;45.880;11.484;2024-02-15T11:06:52;11.50;70.70
59572;DHT22;74587;45.880;11.484;2024-02-15T11:09:22;11.60;70.70
59572;DHT22;74587;45.880;11.484;2024-02-15T11:11:48;11.70;70.70
59572;DHT22;74587;45.880;11.484;2024-02-15T11:14:26;11.60;70.80
59572;DHT22;74587;45.880;11.484;2024-02-15T11:16:57;11.80;70.90
59572;DHT22;74587;45.880;11.484;2024-02-15T11:21:58;11.80;70.80
59572;DHT22;74587;45.880;11.484;2024-02-15T11:24:29;11.90;70.90
59572;DHT22;74587;45.880;11.484;2024-02-15T11:27:01;11.80;70.90
59572;DHT22;74587;45.880;11.484;2024-02-15T11:32:46;11.90;70.50
59572;DHT22;74587;45.880;11.484;2024-02-15T11:35:20;12.00;70.60
59572;DHT22;74587;45.880;11.484;2024-02-15T11:43:03;12.30;70.50
59572;DHT22;74587;45.880;11.484;2024-02-15T11:45:30;12.50;70.40
59572;DHT22;74587;45.880;11.484;2024-02-15T11:48:03;12.60;70.50
59572;DHT22;74587;45.880;11.484;2024-02-15T11:50:34;12.70;70.70
59572;DHT22;74587;45.880;11.484;2024-02-15T11:53:04;12.80;69.30
59572;DHT22;74587;45.880;11.484;2024-02-15T11:55:40;12.80;69.10
59572;DHT22;74587;45.880;11.484;2024-02-15T11:58:07;12.80;69.10
59572;DHT22;74587;45.880;11.484;2024-02-15T12:00:37;12.90;69.10
59572;DHT22;74587;45.880;11.484;2024-02-15T12:03:23;13.00;69.20
59572;DHT22;74587;45.880;11.484;2024-02-15T12:06:07;13.10;69.20
59572;DHT22;74587;45.880;11.484;2024-02-15T12:08:53;13.00;69.20
59572;DHT22;74587;45.880;11.484;2024-02-15T12:11:38;13.10;69.60
59572;DHT22;74587;45.880;11.484;2024-02-15T12:14:24;13.10;69.50
59572;DHT22;74587;45.880;11.484;2024-02-15T12:17:13;13.20;69.40
59572;DHT22;74587;45.880;11.484;2024-02-15T12:20:00;13.20;69.40
59572;DHT22;74587;45.880;11.484;2024-02-15T12:22:26;13.20;69.60
59572;DHT22;74587;45.880;11.484;2024-02-15T12:24:54;13.20;69.40
59572;DHT22;74587;45.880;11.484;2024-02-15T12:27:21;13.20;69.50
59572;DHT22;74587;45.880;11.484;2024-02-15T12:29:59;13.20;69.70
59572;DHT22;74587;45.880;11.484;2024-02-15T12:32:26;13.30;69.40
59572;DHT22;74587;45.880;11.484;2024-02-15T12:34:53;13.30;69.70
59572;DHT22;74587;45.880;11.484;2024-02-15T12:37:20;13.30;69.40
59572;DHT22;74587;45.880;11.484;2024-02-15T12:39:49;13.30;69.40
59572;DHT22;74587;45.880;11.484;2024-02-15T12:42:16;13.40;69.40
59572;DHT22;74587;45.880;11.484;2024-02-15T12:44:47;13.30;69.20
59572;DHT22;74587;45.880;11.484;2024-02-15T12:47:22;13.30;69.10
59572;DHT22;74587;45.880;11.484;2024-02-15T12:49:48;13.30;69.30
59572;DHT22;74587;45.880;11.484;2024-02-15T12:52:36;13.30;69.10
59572;DHT22;74587;45.880;11.484;2024-02-15T12:57:34;13.20;69.40
59572;DHT22;74587;45.880;11.484;2024-02-15T13:00:01;13.30;69.60
59572;DHT22;74587;45.880;11.484;2024-02-15T13:02:39;13.40;69.60
59572;DHT22;74587;45.880;11.484;2024-02-15T13:05:06;13.40;69.60
59572;DHT22;74587;45.880;11.484;2024-02-15T13:07:36;13.50;69.60
59572;DHT22;74587;45.880;11.484;2024-02-15T13:10:02;13.50;70.00
59572;DHT22;74587;45.880;11.484;2024-02-15T13:12:29;13.50;69.90
59572;DHT22;74587;45.880;11.484;2024-02-15T13:14:55;13.50;69.90
59572;DHT22;74587;45.880;11.484;2024-02-15T13:17:20;13.60;69.90
59572;DHT22;74587;45.880;11.484;2024-02-15T13:19:48;13.70;70.00
59572;DHT22;74587;45.880;11.484;2024-02-15T13:22:17;13.70;70.00
59572;DHT22;74587;45.880;11.484;2024-02-15T13:24:44;13.70;70.00
59572;DHT22;74587;45.880;11.484;2024-02-15T13:27:10;13.70;70.00
59572;DHT22;74587;45.880;11.484;2024-02-15T13:29:40;13.70;70.00
59572;DHT22;74587;45.880;11.484;2024-02-15T13:32:06;13.60;70.10
59572;DHT22;74587;45.880;11.484;2024-02-15T13:34:33;13.60;70.20
59572;DHT22;74587;45.880;11.484;2024-02-15T13:36:58;13.50;70.20
59572;DHT22;74587;45.880;11.484;2024-02-15T13:39:27;13.40;70.40
59572;DHT22;74587;45.880;11.484;2024-02-15T13:41:59;13.20;70.40
59572;DHT22;74587;45.880;11.484;2024-02-15T13:44:25;13.10;70.60
59572;DHT22;74587;45.880;11.484;2024-02-15T13:46:51;13.10;70.70
59572;DHT22;74587;45.880;11.484;2024-02-15T13:49:21;13.20;70.70
59572;DHT22;74587;45.880;11.484;2024-02-15T13:51:47;13.00;70.80
59572;DHT22;74587;45.880;11.484;2024-02-15T13:54:13;13.10;71.10
59572;DHT22;74587;45.880;11.484;2024-02-15T13:56:38;13.10;71.00
59572;DHT22;74587;45.880;11.484;2024-02-15T13:59:06;13.10;71.20
59572;DHT22;74587;45.880;11.484;2024-02-15T14:01:31;13.00;71.20
59572;DHT22;74587;45.880;11.484;2024-02-15T14:03:57;13.10;71.10
59572;DHT22;74587;45.880;11.484;2024-02-15T14:06:23;13.20;71.10
59572;DHT22;74587;45.880;11.484;2024-02-15T14:08:49;13.10;71.20
59572;DHT22;74587;45.880;11.484;2024-02-15T14:11:16;13.10;71.10
59572;DHT22;74587;45.880;11.484;2024-02-15T14:13:44;13.10;71.10
59572;DHT22;74587;45.880;11.484;2024-02-15T14:16:10;13.10;71.30
59572;DHT22;74587;45.880;11.484;2024-02-15T14:18:36;13.00;71.30
59572;DHT22;74587;45.880;11.484;2024-02-15T14:21:01;13.00;71.30
59572;DHT22;74587;45.880;11.484;2024-02-15T14:23:28;13.00;71.30
59572;DHT22;74587;45.880;11.484;2024-02-15T14:25:54;13.00;71.40
59572;DHT22;74587;45.880;11.484;2024-02-15T14:28:25;13.00;71.40
59572;DHT22;74587;45.880;11.484;2024-02-15T14:30:51;13.10;71.40
59572;DHT22;74587;45.880;11.484;2024-02-15T14:33:35;13.00;71.80
59572;DHT22;74587;45.880;11.484;2024-02-15T14:36:12;13.00;71.80
59572;DHT22;74587;45.880;11.484;2024-02-15T14:38:47;13.10;71.80
59572;DHT22;74587;45.880;11.484;2024-02-15T14:41:17;13.00;72.00
59572;DHT22;74587;45.880;11.484;2024-02-15T14:43:43;13.00;72.00
59572;DHT22;74587;45.880;11.484;2024-02-15T14:46:09;13.00;72.00
59572;DHT22;74587;45.880;11.484;2024-02-15T14:48:39;13.00;71.90
59572;DHT22;74587;45.880;11.484;2024-02-15T14:51:29;12.90;71.90
59572;DHT22;74587;45.880;11.484;2024-02-15T14:54:04;12.80;72.00
59572;DHT22;74587;45.880;11.484;2024-02-15T15:04:20;12.50;73.60
59572;DHT22;74587;45.880;11.484;2024-02-15T15:06:46;12.60;73.70
59572;DHT22;74587;45.880;11.484;2024-02-15T15:09:31;12.50;73.60
59572;DHT22;74587;45.880;11.484;2024-02-15T15:12:17;12.50;73.80
59572;DHT22;74587;45.880;11.484;2024-02-15T15:15:01;12.50;74.00
59572;DHT22;74587;45.880;11.484;2024-02-15T15:17:30;12.40;74.00
59572;DHT22;74587;45.880;11.484;2024-02-15T15:19:56;12.30;74.40
59572;DHT22;74587;45.880;11.484;2024-02-15T15:40:43;11.80;74.60
59572;DHT22;74587;45.880;11.484;2024-02-15T15:45:52;11.80;74.90
59572;DHT22;74587;45.880;11.484;2024-02-15T15:48:19;11.80;74.90
59572;DHT22;74587;45.880;11.484;2024-02-15T15:50:51;11.70;75.00
59572;DHT22;74587;45.880;11.484;2024-02-15T15:53:19;11.70;75.10
59572;DHT22;74587;45.880;11.484;2024-02-15T15:55:45;11.60;75.10
59572;DHT22;74587;45.880;11.484;2024-02-15T15:58:11;11.60;75.20
59572;DHT22;74587;45.880;11.484;2024-02-15T16:00:40;11.50;75.20
59572;DHT22;74587;45.880;11.484;2024-02-15T16:03:09;11.40;75.20
59572;DHT22;74587;45.880;11.484;2024-02-15T16:05:35;11.30;75.60
59572;DHT22;74587;45.880;11.484;2024-02-15T16:08:01;11.20;75.80
59572;DHT22;74587;45.880;11.484;2024-02-15T16:10:28;11.20;76.00
59572;DHT22;74587;45.880;11.484;2024-02-15T16:12:58;11.00;76.20
59572;DHT22;74587;45.880;11.484;2024-02-15T16:15:25;10.90;76.30
59572;DHT22;74587;45.880;11.484;2024-02-15T16:17:52;10.80;76.20
59572;DHT22;74587;45.880;11.484;2024-02-15T16:20:18;10.70;76.50
59572;DHT22;74587;45.880;11.484;2024-02-15T16:22:43;10.70;76.50
59572;DHT22;74587;45.880;11.484;2024-02-15T16:25:10;10.60;76.50
59572;DHT22;74587;45.880;11.484;2024-02-15T16:30:04;10.40;76.50
59572;DHT22;74587;45.880;11.484;2024-02-15T16:32:32;10.20;76.80
59572;DHT22;74587;45.880;11.484;2024-02-15T16:34:58;10.10;77.20
59572;DHT22;74587;45.880;11.484;2024-02-15T16:37:25;10.00;77.40
59572;DHT22;74587;45.880;11.484;2024-02-15T16:39:53;9.80;77.30
59572;DHT22;74587;45.880;11.484;2024-02-15T16:42:19;9.60;77.40
59572;DHT22;74587;45.880;11.484;2024-02-15T16:44:45;9.70;77.00
59572;DHT22;74587;45.880;11.484;2024-02-15T16:47:16;9.60;76.80
59572;DHT22;74587;45.880;11.484;2024-02-15T16:49:45;9.60;77.00
59572;DHT22;74587;45.880;11.484;2024-02-15T16:52:11;9.60;76.90
59572;DHT22;74587;45.880;11.484;2024-02-15T16:54:37;9.50;77.10